GFF weather

Griffith Airport
Griffith, New South Wales, Australia

Public forecast

Using degrees Celsius for public forecast. Weather courtesy of forecast.io.

METAR (pilot weather report)

Retrieved 2019/04/21 07:00 UTC (43 minutes ago):

YGTH 210700Z AUTO 02008KT 9999 // SCT125 28/13 Q1017

TAF (pilot weather forecast)

Forecast is more than 12 hours old.

Closest forecast is Wagga Wagga City Airport, 88.2 nm (163.4 km) SE. Retrieved 2018/05/25 18:03 UTC (11 months ago):

TAF YSWG 251649Z 2518/2608 07008KT CAVOK